Time;durP1;ratioP1;P1;durP2;ratioP2;P2;SDS_P1;SDS_P2;PMS_P1;PMS_P2;Temp;Humidity;BMP_temperature;BMP_pressure;BME280_temperature;BME280_humidity;BME280_pressure;Samples;Min_cycle;Max_cycle;Signal;HPM_P1;HPM_P2
2022/07/25 00:00:37;;;;;;;2.03;1.92;;;24.20;64.60;;;;;;6243296;22;43462;-62
2022/07/25 00:03:04;;;;;;;2.00;1.90;;;24.20;64.60;;;;;;6243262;22;43410;-62
2022/07/25 00:05:36;;;;;;;1.88;1.77;;;24.20;64.60;;;;;;6243189;22;43828;-62
2022/07/25 00:08:04;;;;;;;1.92;1.83;;;24.20;64.60;;;;;;6243512;22;43916;-62
2022/07/25 00:10:33;;;;;;;1.98;1.88;;;24.20;64.60;;;;;;6243098;22;43440;-62
2022/07/25 00:13:00;;;;;;;2.05;1.88;;;24.20;64.60;;;;;;6242889;22;43412;-62
2022/07/25 00:15:28;;;;;;;2.10;2.00;;;24.20;64.60;;;;;;6243090;22;45143;-62
2022/07/25 00:17:55;;;;;;;2.05;1.95;;;24.20;64.70;;;;;;6243524;22;43665;-62
2022/07/25 00:20:24;;;;;;;2.00;1.90;;;24.10;64.60;;;;;;6242958;22;43399;-61
2022/07/25 00:22:51;;;;;;;2.20;2.10;;;24.20;64.70;;;;;;6243870;22;43391;-62
2022/07/25 00:25:19;;;;;;;2.10;2.00;;;24.20;64.60;;;;;;6242215;22;44992;-62
2022/07/25 00:27:46;;;;;;;1.80;1.70;;;24.10;64.60;;;;;;6243454;22;44188;-62
2022/07/25 00:30:14;;;;;;;2.00;1.90;;;24.10;64.60;;;;;;6243486;22;43586;-62
2022/07/25 00:32:41;;;;;;;1.90;1.80;;;24.10;64.60;;;;;;6242816;22;43568;-62
2022/07/25 00:35:09;;;;;;;1.88;1.77;;;24.10;64.60;;;;;;6243310;22;44943;-62
2022/07/25 00:37:36;;;;;;;2.20;2.10;;;24.10;64.70;;;;;;6243537;22;43363;-62
2022/07/25 00:40:04;;;;;;;1.90;1.80;;;24.10;64.60;;;;;;6242646;22;43440;-62
2022/07/25 00:42:31;;;;;;;1.77;1.67;;;24.10;64.60;;;;;;6243294;22;43419;-62
2022/07/25 00:44:59;;;;;;;2.10;2.00;;;24.10;64.60;;;;;;6243026;22;44646;-62
2022/07/25 00:47:27;;;;;;;1.90;1.80;;;24.10;64.60;;;;;;6243044;22;43464;-62
2022/07/25 00:49:54;;;;;;;2.10;2.00;;;24.10;64.60;;;;;;6243748;22;43462;-62
2022/07/25 00:52:23;;;;;;;1.90;1.80;;;24.10;64.60;;;;;;6243268;22;43416;-62
2022/07/25 00:54:50;;;;;;;1.90;1.80;;;24.10;64.70;;;;;;6242284;22;44648;-62
2022/07/25 00:57:18;;;;;;;2.00;1.90;;;24.10;64.60;;;;;;6243259;22;43468;-62
2022/07/25 00:59:45;;;;;;;1.90;1.80;;;24.10;64.60;;;;;;6243118;22;43813;-62
2022/07/25 01:02:13;;;;;;;1.98;1.88;;;24.10;64.60;;;;;;6242745;22;43453;-62
2022/07/25 01:04:41;;;;;;;1.90;1.80;;;24.10;64.60;;;;;;6243326;22;44673;-62
2022/07/25 01:07:08;;;;;;;1.90;1.80;;;24.10;64.70;;;;;;6242918;22;43938;-62
2022/07/25 01:09:36;;;;;;;2.00;1.90;;;24.10;64.60;;;;;;6242797;22;43364;-61
2022/07/25 01:12:04;;;;;;;2.00;1.90;;;24.10;64.60;;;;;;6243750;22;43388;-62
2022/07/25 01:14:38;;;;;;;1.73;1.63;;;24.10;64.60;;;;;;6242766;22;43921;-62
2022/07/25 01:17:05;;;;;;;1.75;1.65;;;24.10;64.60;;;;;;6243190;22;43393;-62
2022/07/25 01:19:33;;;;;;;1.80;1.70;;;24.00;64.60;;;;;;6243800;22;43433;-62
2022/07/25 01:22:00;;;;;;;2.00;1.90;;;24.00;64.60;;;;;;6243035;22;43334;-62
2022/07/25 01:24:28;;;;;;;1.95;1.80;;;24.10;64.70;;;;;;6242213;22;44835;-62
2022/07/25 01:26:55;;;;;;;2.00;1.90;;;24.10;64.70;;;;;;6243359;22;43475;-62
2022/07/25 01:29:23;;;;;;;1.63;1.52;;;24.00;64.60;;;;;;6242350;22;43422;-62
2022/07/25 01:31:51;;;;;;;1.92;1.83;;;24.00;64.60;;;;;;6242993;22;43411;-62
2022/07/25 01:34:18;;;;;;;1.90;1.80;;;24.00;64.60;;;;;;6214782;22;44788;-62
2022/07/25 01:36:45;;;;;;;2.00;1.90;;;24.00;64.60;;;;;;6242520;22;43703;-62
2022/07/25 01:39:13;;;;;;;2.00;1.90;;;24.00;64.60;;;;;;6243322;22;43387;-61
2022/07/25 01:41:40;;;;;;;1.77;1.70;;;24.00;64.60;;;;;;6242960;22;43442;-61
2022/07/25 01:44:08;;;;;;;2.05;1.95;;;24.00;64.60;;;;;;6242041;22;44618;-62
2022/07/25 01:46:36;;;;;;;2.15;2.00;;;24.00;64.70;;;;;;6243065;22;43660;-62
2022/07/25 01:49:03;;;;;;;1.85;1.75;;;24.00;64.60;;;;;;6242818;22;43392;-62
2022/07/25 01:51:31;;;;;;;1.92;1.83;;;24.00;64.60;;;;;;6242323;22;43589;-62
2022/07/25 01:53:59;;;;;;;1.90;1.80;;;24.00;64.60;;;;;;6243254;22;43966;-62
2022/07/25 01:56:26;;;;;;;2.10;2.00;;;24.00;64.60;;;;;;6242317;22;43664;-62
2022/07/25 01:58:57;;;;;;;2.08;1.98;;;24.00;64.60;;;;;;6243735;22;43419;-62
2022/07/25 02:01:25;;;;;;;1.80;1.70;;;24.00;64.60;;;;;;6242909;22;43577;-62
2022/07/25 02:03:53;;;;;;;1.90;1.80;;;24.00;64.60;;;;;;6242279;22;44930;-62
2022/07/25 02:06:20;;;;;;;2.08;1.95;;;24.00;64.60;;;;;;6242862;22;43872;-62
2022/07/25 02:08:47;;;;;;;1.98;1.88;;;24.00;64.60;;;;;;6243073;22;43336;-62
2022/07/25 02:11:16;;;;;;;2.03;1.92;;;24.00;64.60;;;;;;6241979;22;43404;-62
2022/07/25 02:13:43;;;;;;;1.80;1.70;;;24.00;64.60;;;;;;6242600;22;44659;-62
2022/07/25 02:16:11;;;;;;;1.73;1.63;;;24.00;64.60;;;;;;6242437;22;43404;-62
2022/07/25 02:18:39;;;;;;;1.85;1.75;;;24.00;64.60;;;;;;6242333;22;43514;-61
2022/07/25 02:21:08;;;;;;;1.80;1.70;;;24.00;64.60;;;;;;6242623;22;43398;-62
2022/07/25 02:23:41;;;;;;;1.95;1.85;;;24.00;64.60;;;;;;6242547;22;44626;-61
2022/07/25 02:26:12;;;;;;;1.83;1.73;;;24.00;65.30;;;;;;6241914;22;43492;-62
2022/07/25 02:28:39;;;;;;;2.15;1.95;;;24.00;64.60;;;;;;6243361;22;44055;-62
2022/07/25 02:31:07;;;;;;;1.83;1.73;;;24.00;64.60;;;;;;6242386;22;43537;-61
2022/07/25 02:33:35;;;;;;;1.95;1.85;;;23.90;64.50;;;;;;6242012;22;44862;-62
2022/07/25 02:36:03;;;;;;;1.80;1.70;;;24.00;64.60;;;;;;6242140;22;43775;-62
2022/07/25 02:38:31;;;;;;;1.70;1.60;;;24.00;64.60;;;;;;6242489;22;43448;-61
2022/07/25 02:40:58;;;;;;;1.70;1.60;;;24.00;64.60;;;;;;6243031;22;43508;-62
2022/07/25 02:43:26;;;;;;;2.15;2.05;;;23.90;64.50;;;;;;6242821;22;43996;-62
2022/07/25 02:45:53;;;;;;;1.92;1.75;;;24.00;64.50;;;;;;6242538;22;43701;-62
2022/07/25 02:48:21;;;;;;;1.70;1.60;;;23.90;64.40;;;;;;6242909;22;43416;-62
2022/07/25 02:50:48;;;;;;;1.90;1.80;;;24.00;64.50;;;;;;6242782;22;43484;-62
2022/07/25 02:53:16;;;;;;;1.65;1.55;;;23.90;64.50;;;;;;6241946;22;44050;-62
2022/07/25 02:56:04;;;;;;;2.50;2.30;;;24.00;64.50;;;;;;6242914;22;43710;-61
2022/07/25 02:58:32;;;;;;;1.83;1.73;;;23.90;64.50;;;;;;6242355;22;43470;-62
2022/07/25 03:00:59;;;;;;;1.90;1.80;;;23.90;64.50;;;;;;6242209;22;43476;-62
2022/07/25 03:03:27;;;;;;;1.77;1.67;;;23.90;64.40;;;;;;6242260;22;44646;-61
2022/07/25 03:05:55;;;;;;;1.90;1.80;;;23.90;64.50;;;;;;6242790;22;43643;-62
2022/07/25 03:08:22;;;;;;;1.73;1.63;;;23.90;64.40;;;;;;6241868;22;43406;-62
2022/07/25 03:10:50;;;;;;;2.50;1.80;;;23.90;64.50;;;;;;6242379;22;43442;-62
2022/07/25 03:13:17;;;;;;;1.90;1.80;;;23.90;64.40;;;;;;6241893;22;44671;-62
2022/07/25 03:15:46;;;;;;;1.70;1.60;;;23.90;64.40;;;;;;6241494;22;43415;-61
2022/07/25 03:18:13;;;;;;;1.75;1.65;;;23.90;64.40;;;;;;6242676;22;43421;-61
2022/07/25 03:20:41;;;;;;;1.70;1.60;;;23.90;64.40;;;;;;6242066;22;43549;-62
2022/07/25 03:23:08;;;;;;;1.88;1.77;;;23.90;64.40;;;;;;6241546;22;44022;-62
2022/07/25 03:25:36;;;;;;;1.80;1.70;;;23.90;64.40;;;;;;6241964;22;44108;-62
2022/07/25 03:28:03;;;;;;;1.83;1.73;;;23.90;64.40;;;;;;6241490;22;43422;-61
2022/07/25 03:30:31;;;;;;;2.00;1.90;;;23.90;64.40;;;;;;6241800;22;43398;-61
2022/07/25 03:32:58;;;;;;;1.90;1.80;;;23.90;64.50;;;;;;6242142;22;43790;-61
2022/07/25 03:35:25;;;;;;;1.90;1.80;;;23.90;64.40;;;;;;6240893;22;43630;-62
2022/07/25 03:37:53;;;;;;;1.90;1.80;;;23.90;64.40;;;;;;6242623;22;43463;-62
2022/07/25 03:40:22;;;;;;;1.80;1.70;;;23.90;64.40;;;;;;6242091;22;43630;-62
2022/07/25 03:42:49;;;;;;;2.08;1.98;;;23.90;64.50;;;;;;6241113;22;44657;-62
2022/07/25 03:45:17;;;;;;;1.80;1.70;;;23.90;64.50;;;;;;6241573;22;43910;-62
2022/07/25 03:47:44;;;;;;;1.70;1.60;;;23.90;64.50;;;;;;6241986;22;43407;-62
2022/07/25 03:50:12;;;;;;;2.05;1.88;;;23.90;64.50;;;;;;6242711;22;43557;-62
2022/07/25 03:52:39;;;;;;;2.00;1.90;;;23.90;64.50;;;;;;6242599;22;44005;-62
2022/07/25 03:55:10;;;;;;;1.90;1.80;;;23.90;64.50;;;;;;6242909;22;43415;-61
2022/07/25 03:57:38;;;;;;;2.00;1.90;;;23.90;64.50;;;;;;6243239;22;43904;-62
2022/07/25 04:00:08;;;;;;;1.75;1.65;;;23.90;64.50;;;;;;6243701;22;43562;-62
2022/07/25 04:02:38;;;;;;;1.90;1.80;;;23.90;64.50;;;;;;6243040;22;43873;-61
2022/07/25 04:05:07;;;;;;;1.75;1.65;;;23.90;64.50;;;;;;6242618;22;44083;-61
2022/07/25 04:07:36;;;;;;;2.00;1.90;;;23.90;64.50;;;;;;6243466;22;43376;-61
2022/07/25 04:10:05;;;;;;;1.65;1.60;;;23.80;64.50;;;;;;6243106;22;43607;-61
2022/07/25 04:12:32;;;;;;;1.90;1.80;;;23.90;64.60;;;;;;6242560;22;44955;-61
2022/07/25 04:15:00;;;;;;;2.13;2.03;;;23.80;64.50;;;;;;6243027;22;43636;-61
2022/07/25 04:17:27;;;;;;;1.80;1.70;;;23.90;64.50;;;;;;6243074;22;43348;-62
2022/07/25 04:19:55;;;;;;;1.80;1.70;;;23.80;64.50;;;;;;6243559;22;43749;-62
2022/07/25 04:22:22;;;;;;;1.80;1.70;;;23.80;64.50;;;;;;6243098;22;44967;-62
2022/07/25 04:24:50;;;;;;;1.88;1.77;;;23.90;64.60;;;;;;6241985;22;43915;-62
2022/07/25 04:27:17;;;;;;;1.80;1.70;;;23.80;64.50;;;;;;6243921;22;43390;-61
2022/07/25 04:29:45;;;;;;;1.77;1.67;;;23.90;64.60;;;;;;6243054;22;43417;-62
2022/07/25 04:32:13;;;;;;;1.90;1.80;;;23.80;64.50;;;;;;6242627;22;44005;-62
2022/07/25 04:34:43;;;;;;;1.70;1.60;;;23.80;64.50;;;;;;6242974;22;43642;-62
2022/07/25 04:37:11;;;;;;;1.85;1.70;;;23.80;64.50;;;;;;6242973;22;43477;-62
2022/07/25 04:39:38;;;;;;;1.70;1.60;;;23.80;64.50;;;;;;6242817;22;43456;-62
2022/07/25 04:42:06;;;;;;;1.85;1.75;;;23.80;64.60;;;;;;6243186;22;44707;-62
2022/07/25 04:44:33;;;;;;;1.80;1.70;;;23.80;64.50;;;;;;6242695;22;43428;-62
2022/07/25 04:47:01;;;;;;;1.88;1.77;;;23.80;64.50;;;;;;6243125;22;43533;-62
2022/07/25 04:49:28;;;;;;;1.90;1.80;;;23.80;64.50;;;;;;6242883;22;43530;-61
2022/07/25 04:51:56;;;;;;;1.80;1.70;;;23.80;64.60;;;;;;6243040;22;43768;-62
2022/07/25 04:54:23;;;;;;;1.80;1.70;;;23.80;64.60;;;;;;6242026;22;43694;-61
2022/07/25 04:56:51;;;;;;;1.70;1.60;;;23.80;64.50;;;;;;6243390;22;43431;-62
2022/07/25 04:59:18;;;;;;;1.92;1.83;;;23.80;64.60;;;;;;6242547;22;43402;-62
2022/07/25 05:01:45;;;;;;;1.80;1.70;;;23.80;64.60;;;;;;6242436;22;43924;-61
2022/07/25 05:04:13;;;;;;;1.70;1.60;;;23.80;64.60;;;;;;6242479;22;43690;-62
2022/07/25 05:06:40;;;;;;;2.00;1.90;;;23.80;64.60;;;;;;6242671;22;43377;-62
2022/07/25 05:09:08;;;;;;;1.92;1.83;;;23.80;64.60;;;;;;6243123;22;43398;-62
2022/07/25 05:11:35;;;;;;;1.70;1.67;;;23.80;64.60;;;;;;6242636;22;44967;-62
2022/07/25 05:14:03;;;;;;;1.90;1.80;;;23.80;64.60;;;;;;6242716;22;43414;-62
2022/07/25 05:16:31;;;;;;;1.90;1.80;;;23.80;64.60;;;;;;6242981;22;43495;-61
2022/07/25 05:18:58;;;;;;;2.13;2.03;;;23.80;64.60;;;;;;6243219;22;43572;-62
2022/07/25 05:21:26;;;;;;;1.90;1.80;;;23.80;64.60;;;;;;6242166;22;44969;-62
2022/07/25 05:23:54;;;;;;;2.13;2.00;;;23.80;64.60;;;;;;6243137;22;43738;-62
2022/07/25 05:26:21;;;;;;;2.10;2.00;;;23.80;64.60;;;;;;6242599;22;43391;-61
2022/07/25 05:28:50;;;;;;;1.90;1.80;;;23.80;64.60;;;;;;6242835;22;43446;-61
2022/07/25 05:31:17;;;;;;;1.90;1.80;;;23.70;64.70;;;;;;6242589;22;44948;-62
2022/07/25 05:33:45;;;;;;;2.05;1.95;;;23.70;64.70;;;;;;6242402;22;43678;-61
2022/07/25 05:36:13;;;;;;;2.20;2.00;;;23.80;64.80;;;;;;6242076;22;43373;-61
2022/07/25 05:38:40;;;;;;;2.10;2.00;;;23.70;64.70;;;;;;6216066;22;43579;-61
2022/07/25 05:41:08;;;;;;;1.80;1.70;;;23.80;64.80;;;;;;6242561;22;43796;-61
2022/07/25 05:43:35;;;;;;;2.03;1.92;;;23.80;64.80;;;;;;6242577;22;43425;-62
2022/07/25 05:46:04;;;;;;;2.03;1.92;;;23.80;64.90;;;;;;6243589;22;43419;-62
2022/07/25 05:48:31;;;;;;;2.17;2.08;;;23.80;64.80;;;;;;6242376;22;43424;-62
2022/07/25 05:50:59;;;;;;;2.40;2.20;;;23.80;64.80;;;;;;6242485;22;44035;-62
2022/07/25 05:53:26;;;;;;;2.13;2.03;;;23.80;64.90;;;;;;6242801;22;43868;-62
2022/07/25 05:55:54;;;;;;;2.08;1.98;;;23.70;64.90;;;;;;6241923;22;43399;-61
2022/07/25 05:58:21;;;;;;;2.20;2.00;;;23.80;65.00;;;;;;6242770;22;43562;-62
2022/07/25 06:00:56;;;;;;;1.90;1.80;;;23.80;65.00;;;;;;6242932;22;43749;-62
2022/07/25 06:03:24;;;;;;;2.28;2.17;;;23.80;65.00;;;;;;6242161;22;43366;-62
2022/07/25 06:05:54;;;;;;;1.98;1.88;;;23.80;65.00;;;;;;6242631;22;43391;-62
2022/07/25 06:08:22;;;;;;;2.40;2.20;;;23.80;65.00;;;;;;6242204;22;43383;-62
2022/07/25 06:10:51;;;;;;;2.10;1.90;;;23.80;65.00;;;;;;6241413;22;43906;-62
2022/07/25 06:13:18;;;;;;;2.38;2.22;;;23.80;65.00;;;;;;6242503;22;43401;-62
2022/07/25 06:15:47;;;;;;;2.00;1.90;;;23.80;65.00;;;;;;6242064;22;43353;-62
2022/07/25 06:18:14;;;;;;;2.13;2.03;;;23.80;65.00;;;;;;6242000;22;43426;-62
2022/07/25 06:20:42;;;;;;;2.00;1.90;;;23.80;65.10;;;;;;6242385;22;44681;-62
2022/07/25 06:23:09;;;;;;;2.00;1.90;;;23.80;65.10;;;;;;6242234;22;43463;-61
2022/07/25 06:25:37;;;;;;;2.30;2.10;;;23.80;65.20;;;;;;6241815;22;43352;-62
2022/07/25 06:28:04;;;;;;;2.03;1.92;;;23.80;65.10;;;;;;6242297;22;43571;-61
2022/07/25 06:30:36;;;;;;;2.53;2.40;;;23.80;65.10;;;;;;6242401;22;44671;-62
2022/07/25 06:33:04;;;;;;;2.28;2.17;;;23.80;65.10;;;;;;6240816;22;43363;-62
2022/07/25 06:35:31;;;;;;;2.40;2.20;;;23.70;65.00;;;;;;6242240;22;43430;-61
2022/07/25 06:37:59;;;;;;;2.50;2.40;;;23.80;65.00;;;;;;6241994;22;43396;-61
2022/07/25 06:40:26;;;;;;;2.47;2.38;;;23.80;65.10;;;;;;6241932;22;44684;-61
2022/07/25 06:42:54;;;;;;;2.55;2.42;;;23.80;65.10;;;;;;6242560;22;43452;-61
2022/07/25 06:45:22;;;;;;;2.15;2.05;;;23.80;65.00;;;;;;6241330;22;43503;-61
2022/07/25 06:47:51;;;;;;;2.25;2.10;;;23.80;65.00;;;;;;6242453;22;43609;-61
2022/07/25 06:50:19;;;;;;;2.30;2.20;;;23.80;64.90;;;;;;6241946;22;43576;-61
2022/07/25 06:52:47;;;;;;;2.03;1.92;;;23.80;64.90;;;;;;6242017;22;43458;-61
2022/07/25 06:55:15;;;;;;;2.45;2.25;;;23.80;64.80;;;;;;6241816;22;43407;-62
2022/07/25 06:57:42;;;;;;;2.38;2.22;;;23.80;64.80;;;;;;6242193;22;43404;-61
2022/07/25 07:00:12;;;;;;;2.40;2.30;;;23.80;64.80;;;;;;6241516;22;44640;-61
2022/07/25 07:02:57;;;;;;;2.30;2.20;;;23.80;64.80;;;;;;6242425;22;43500;-61
2022/07/25 07:05:27;;;;;;;2.72;2.53;;;23.80;64.70;;;;;;6241614;22;43429;-61
2022/07/25 07:07:55;;;;;;;2.30;2.20;;;23.80;64.80;;;;;;6242104;22;43441;-61
2022/07/25 07:10:23;;;;;;;2.65;2.55;;;23.80;64.70;;;;;;6242017;22;43759;-61
2022/07/25 07:13:08;;;;;;;2.50;2.40;;;23.80;64.70;;;;;;6241814;22;43865;-61
2022/07/25 07:15:37;;;;;;;2.40;2.30;;;23.80;64.70;;;;;;6242117;22;44081;-61
2022/07/25 07:18:06;;;;;;;2.60;2.50;;;23.80;64.70;;;;;;6242080;22;43407;-61
2022/07/25 07:20:34;;;;;;;2.60;2.40;;;23.80;64.60;;;;;;6240955;22;43999;-61
2022/07/25 07:23:01;;;;;;;2.80;2.60;;;23.80;64.60;;;;;;6243131;22;43524;-62
2022/07/25 07:25:33;;;;;;;2.65;2.53;;;23.80;64.60;;;;;;6243104;22;43410;-62
2022/07/25 07:28:01;;;;;;;2.70;2.50;;;23.90;64.70;;;;;;6243504;22;43398;-61
2022/07/25 07:30:29;;;;;;;2.63;2.50;;;23.90;64.70;;;;;;6242921;22;44826;-61
2022/07/25 07:33:16;;;;;;;2.67;2.35;;;23.80;64.60;;;;;;6243390;22;43359;-61
2022/07/25 07:35:44;;;;;;;2.40;2.30;;;23.90;64.80;;;;;;6241970;22;43466;-61
2022/07/25 07:38:12;;;;;;;2.60;2.50;;;23.90;64.70;;;;;;6243229;22;43430;-61
2022/07/25 07:40:39;;;;;;;2.80;2.60;;;23.90;64.80;;;;;;6215888;22;43860;-62
2022/07/25 07:43:07;;;;;;;2.60;2.50;;;23.80;64.70;;;;;;6242848;22;43447;-61
2022/07/25 07:45:34;;;;;;;2.75;2.65;;;23.90;64.70;;;;;;6243215;22;43516;-62
2022/07/25 07:48:02;;;;;;;2.80;2.60;;;23.90;64.80;;;;;;6243860;22;43423;-62
2022/07/25 07:50:29;;;;;;;3.03;2.83;;;23.90;64.80;;;;;;6242575;22;43925;-62
2022/07/25 07:52:57;;;;;;;2.92;2.72;;;23.90;64.70;;;;;;6243812;22;43440;-61
2022/07/25 07:55:44;;;;;;;3.20;3.00;;;23.90;64.70;;;;;;6242327;22;43436;-61
2022/07/25 07:58:17;;;;;;;3.00;2.70;;;23.90;64.70;;;;;;6243674;22;43446;-62
2022/07/25 08:00:47;;;;;;;2.97;2.78;;;23.90;64.70;;;;;;6242966;22;44634;-61
2022/07/25 08:03:19;;;;;;;2.83;2.63;;;23.90;64.70;;;;;;6242948;22;43629;-62
2022/07/25 08:05:48;;;;;;;3.13;2.90;;;23.90;64.70;;;;;;6243631;22;43354;-61
2022/07/25 08:08:15;;;;;;;3.03;2.83;;;23.90;64.70;;;;;;6242949;22;43573;-61
2022/07/25 08:10:45;;;;;;;2.63;2.45;;;23.90;64.70;;;;;;6242528;22;44667;-62
2022/07/25 08:13:18;;;;;;;3.00;2.80;;;23.90;64.70;;;;;;6243637;22;43763;-61
2022/07/25 08:15:50;;;;;;;3.05;2.85;;;23.90;64.70;;;;;;6242930;22;43446;-62
2022/07/25 08:18:17;;;;;;;2.90;2.70;;;23.90;64.70;;;;;;6242921;22;43383;-61
2022/07/25 08:20:46;;;;;;;3.15;2.95;;;23.90;64.70;;;;;;6243124;22;43773;-62
2022/07/25 08:23:14;;;;;;;2.80;2.60;;;23.90;64.70;;;;;;6243357;22;43384;-62
2022/07/25 08:25:42;;;;;;;2.90;2.70;;;23.90;64.70;;;;;;6242424;22;43373;-61
2022/07/25 08:28:09;;;;;;;2.95;2.75;;;24.00;64.70;;;;;;6242854;22;43403;-61
2022/07/25 08:30:38;;;;;;;2.92;2.72;;;23.90;64.70;;;;;;6215556;22;43783;-62
2022/07/25 08:33:09;;;;;;;2.83;2.63;;;24.00;64.70;;;;;;6242944;22;43342;-61
2022/07/25 08:35:37;;;;;;;3.15;2.95;;;24.00;64.80;;;;;;6242397;22;43364;-61
2022/07/25 08:38:05;;;;;;;2.80;2.60;;;24.00;65.10;;;;;;6242537;22;43471;-61
2022/07/25 08:40:34;;;;;;;2.80;2.60;;;23.90;64.90;;;;;;6242773;22;43932;-61
2022/07/25 08:43:01;;;;;;;3.00;2.80;;;24.00;65.00;;;;;;6243051;22;43954;-62
2022/07/25 08:45:29;;;;;;;3.03;2.83;;;24.00;64.80;;;;;;6242264;22;43427;-61
2022/07/25 08:47:56;;;;;;;2.95;2.70;;;23.90;64.80;;;;;;6243904;22;43523;-61
2022/07/25 08:50:27;;;;;;;3.00;2.80;;;24.00;64.80;;;;;;6242760;22;44697;-61
2022/07/25 08:52:55;;;;;;;2.95;2.75;;;23.90;64.70;;;;;;6243147;22;43348;-61
2022/07/25 08:55:44;;;;;;;2.90;2.70;;;23.90;64.80;;;;;;6243849;22;43758;-61
2022/07/25 08:58:14;;;;;;;3.00;2.80;;;24.00;64.80;;;;;;6243230;22;43399;-62
2022/07/25 09:00:43;;;;;;;2.67;2.47;;;24.00;64.80;;;;;;6243181;22;44734;-61
2022/07/25 09:03:11;;;;;;;2.30;2.20;;;24.00;64.80;;;;;;6243422;22;43477;-61
2022/07/25 09:05:39;;;;;;;2.83;2.63;;;24.00;64.80;;;;;;6242337;22;43445;-61
2022/07/25 09:08:12;;;;;;;3.05;2.85;;;24.00;64.80;;;;;;6243596;22;43427;-62
2022/07/25 09:10:46;;;;;;;2.50;2.40;;;24.00;64.80;;;;;;6243013;22;44762;-62
2022/07/25 09:13:15;;;;;;;2.63;2.42;;;24.00;64.90;;;;;;6242657;22;43662;-62
2022/07/25 09:15:47;;;;;;;3.47;2.60;;;24.00;65.00;;;;;;6242922;22;43465;-62
2022/07/25 09:18:22;;;;;;;2.58;2.40;;;24.00;64.90;;;;;;6243149;22;43484;-62
2022/07/25 09:20:52;;;;;;;2.50;2.40;;;24.00;64.80;;;;;;6237759;22;44940;-62
2022/07/25 09:23:33;;;;;;;2.42;2.33;;;24.00;64.80;;;;;;6242540;22;43950;-62
2022/07/25 09:26:11;;;;;;;3.22;3.00;;;24.00;64.80;;;;;;6242736;22;43347;-62
2022/07/25 09:28:51;;;;;;;2.22;2.13;;;24.00;64.80;;;;;;6241391;22;43542;-61
2022/07/25 09:31:18;;;;;;;2.40;2.30;;;24.00;64.80;;;;;;6241997;22;44638;-61
2022/07/25 09:33:55;;;;;;;2.50;2.40;;;24.00;64.80;;;;;;6241950;22;43450;-62
2022/07/25 09:36:23;;;;;;;2.58;2.38;;;24.00;64.80;;;;;;6241906;22;43488;-62
2022/07/25 09:38:55;;;;;;;2.63;2.50;;;24.00;64.80;;;;;;6242736;22;43399;-62
2022/07/25 09:41:36;;;;;;;2.50;2.40;;;24.00;64.80;;;;;;6214248;22;44150;-62
2022/07/25 09:44:15;;;;;;;2.70;2.50;;;24.10;64.80;;;;;;6241808;22;43686;-62
2022/07/25 09:46:43;;;;;;;2.50;2.30;;;24.00;64.80;;;;;;6242362;22;43359;-62
2022/07/25 09:49:13;;;;;;;2.90;2.70;;;24.00;64.90;;;;;;6242316;22;43614;-62
2022/07/25 09:51:41;;;;;;;2.65;2.45;;;24.00;64.80;;;;;;6242228;22;44634;-62
2022/07/25 09:54:09;;;;;;;2.60;2.40;;;24.00;64.90;;;;;;6241371;22;43949;-62
2022/07/25 09:56:36;;;;;;;2.50;2.30;;;24.00;64.40;;;;;;6241656;22;43466;-62
2022/07/25 09:59:05;;;;;;;2.70;2.50;;;24.00;64.60;;;;;;6242454;22;43435;-62
2022/07/25 10:02:04;;;;;;;2.72;2.53;;;24.00;64.80;;;;;;6242071;22;44105;-62
2022/07/25 10:04:45;;;;;;;3.05;2.33;;;24.10;64.70;;;;;;6161734;22;43426;-62
2022/07/25 10:07:14;;;;;;;;;;;24.10;64.70;;;;;;6242822;22;43477;-61
2022/07/25 10:09:47;;;;;;;2.40;2.30;;;24.00;64.80;;;;;;6242079;22;43574;-61
2022/07/25 10:12:19;;;;;;;2.47;2.38;;;24.00;64.90;;;;;;6241772;22;43996;-60
2022/07/25 10:15:07;;;;;;;2.70;2.50;;;24.00;64.90;;;;;;6242171;22;43384;-61
2022/07/25 10:17:35;;;;;;;2.10;2.00;;;24.00;65.00;;;;;;6242014;22;43443;-61
2022/07/25 10:20:05;;;;;;;3.65;2.45;;;24.00;65.00;;;;;;6241789;22;43424;-61
2022/07/25 10:22:40;;;;;;;3.75;2.42;;;24.00;65.00;;;;;;6242245;22;44657;-60
2022/07/25 10:25:24;;;;;;;2.60;2.40;;;24.10;65.00;;;;;;6241701;22;43929;-61
2022/07/25 10:28:05;;;;;;;2.40;2.30;;;24.10;65.00;;;;;;6241779;22;43379;-60
2022/07/25 10:30:37;;;;;;;2.45;2.25;;;24.10;65.00;;;;;;6241736;22;43478;-60
2022/07/25 10:33:10;;;;;;;2.97;2.70;;;24.10;65.10;;;;;;6242127;22;44028;-61
2022/07/25 10:35:38;;;;;;;2.80;2.60;;;24.10;65.00;;;;;;6241274;22;43687;-61
2022/07/25 10:38:06;;;;;;;2.85;2.35;;;24.10;65.00;;;;;;6241739;22;43451;-61
2022/07/25 10:40:38;;;;;;;2.60;2.40;;;24.10;65.00;;;;;;6238010;22;43468;-60
2022/07/25 10:43:24;;;;;;;2.58;2.35;;;24.10;65.00;;;;;;6240109;22;44653;-61
2022/07/25 10:45:52;;;;;;;3.28;2.60;;;24.10;65.00;;;;;;6240852;22;43378;-61
2022/07/25 10:48:21;;;;;;;2.70;2.50;;;24.10;65.10;;;;;;6241834;22;43356;-61
2022/07/25 10:50:57;;;;;;;2.70;2.50;;;24.10;65.10;;;;;;6240923;22;43445;-61
2022/07/25 10:53:44;;;;;;;3.08;2.65;;;24.10;65.00;;;;;;6241109;22;44929;-62
2022/07/25 10:56:20;;;;;;;3.17;2.45;;;24.20;65.00;;;;;;6241604;22;43603;-61
2022/07/25 10:58:49;;;;;;;2.63;2.40;;;24.10;65.00;;;;;;6242940;22;43355;-61
2022/07/25 11:01:26;;;;;;;2.55;2.35;;;24.20;65.10;;;;;;6243207;22;43582;-61
2022/07/25 11:03:58;;;;;;;2.80;2.60;;;24.20;65.80;;;;;;6242832;22;43740;-61
2022/07/25 11:06:37;;;;;;;2.70;2.50;;;24.20;65.30;;;;;;6214528;22;44678;-61
2022/07/25 11:09:18;;;;;;;2.78;2.40;;;24.20;65.10;;;;;;6243760;22;43454;-60
2022/07/25 11:11:56;;;;;;;3.72;2.60;;;24.20;65.70;;;;;;6243198;22;43523;-61
2022/07/25 11:14:32;;;;;;;3.15;2.45;;;24.20;65.40;;;;;;6242756;22;43769;-61
2022/07/25 11:17:19;;;;;;;2.85;2.65;;;24.20;65.40;;;;;;6242940;22;43686;-61
2022/07/25 11:19:55;;;;;;;2.50;2.30;;;24.20;65.30;;;;;;6242040;22;43394;-61
2022/07/25 11:22:24;;;;;;;3.28;2.10;;;24.30;65.30;;;;;;6243813;22;43387;-62
2022/07/25 11:24:51;;;;;;;3.42;2.30;;;24.20;65.30;;;;;;6242098;22;44640;-62
2022/07/25 11:27:30;;;;;;;2.85;2.65;;;24.20;65.30;;;;;;6241858;22;43399;-62
2022/07/25 11:30:12;;;;;;;2.58;2.28;;;24.30;65.50;;;;;;6243266;22;43552;-62
2022/07/25 11:32:41;;;;;;;3.25;2.60;;;24.20;65.50;;;;;;6243554;22;43510;-62
2022/07/25 11:35:11;;;;;;;2.65;2.45;;;24.20;65.50;;;;;;6240921;22;44937;-62
2022/07/25 11:37:42;;;;;;;2.80;2.60;;;24.20;65.50;;;;;;6242910;22;43412;-62
2022/07/25 11:40:10;;;;;;;3.20;2.33;;;24.20;65.40;;;;;;6243687;22;43392;-62
2022/07/25 11:42:43;;;;;;;3.38;2.50;;;24.20;65.50;;;;;;6242037;22;43458;-62
2022/07/25 11:45:25;;;;;;;2.60;2.40;;;24.20;65.60;;;;;;6242297;22;44017;-62
2022/07/25 11:48:13;;;;;;;2.63;2.08;;;24.20;65.50;;;;;;6242932;22;43428;-62
2022/07/25 11:50:43;;;;;;;2.30;2.10;;;24.20;65.50;;;;;;6243600;22;43431;-62
2022/07/25 11:53:15;;;;;;;2.80;2.13;;;24.20;65.50;;;;;;6243258;22;43466;-63
2022/07/25 11:55:42;;;;;;;2.75;2.42;;;24.20;65.50;;;;;;6241041;22;44741;-62
2022/07/25 11:58:12;;;;;;;2.45;2.25;;;24.20;65.60;;;;;;6243123;22;43388;-62
2022/07/25 12:00:49;;;;;;;3.30;2.22;;;24.20;65.50;;;;;;6242747;22;43399;-63
2022/07/25 12:03:19;;;;;;;2.22;2.10;;;24.20;65.40;;;;;;6242440;22;43498;-62
2022/07/25 12:05:48;;;;;;;2.95;2.70;;;24.20;65.40;;;;;;6242304;22;43893;-62
2022/07/25 12:08:18;;;;;;;3.63;2.63;;;24.30;65.50;;;;;;6242177;22;43347;-62
2022/07/25 12:10:47;;;;;;;3.80;2.75;;;24.30;65.50;;;;;;6241924;22;43427;-63
2022/07/25 12:13:26;;;;;;;3.13;2.40;;;24.30;65.60;;;;;;6243131;22;43360;-62
2022/07/25 12:15:56;;;;;;;3.13;2.20;;;24.30;65.70;;;;;;6242343;22;44960;-62
2022/07/25 12:18:24;;;;;;;2.85;2.30;;;24.30;65.60;;;;;;6241770;22;43675;-62
2022/07/25 12:20:52;;;;;;;3.05;2.33;;;24.30;65.60;;;;;;6242896;22;43376;-62
2022/07/25 12:23:20;;;;;;;2.90;2.33;;;24.30;65.60;;;;;;6243008;22;43368;-62
2022/07/25 12:25:48;;;;;;;2.33;2.13;;;24.30;65.60;;;;;;6241415;22;44972;-62
2022/07/25 12:28:16;;;;;;;2.83;2.13;;;24.30;65.60;;;;;;6240896;22;43429;-62
2022/07/25 12:30:45;;;;;;;2.83;2.38;;;24.30;65.60;;;;;;6237685;22;43407;-62
2022/07/25 12:33:13;;;;;;;2.38;2.17;;;24.30;65.50;;;;;;6240676;22;43433;-62
2022/07/25 12:35:41;;;;;;;2.72;2.10;;;24.30;65.40;;;;;;6241286;22;44613;-61
2022/07/25 12:38:10;;;;;;;2.53;2.10;;;24.40;66.10;;;;;;6241736;22;43685;-61
2022/07/25 12:40:39;;;;;;;4.43;2.10;;;24.40;65.90;;;;;;6241740;22;43506;-61
2022/07/25 12:43:06;;;;;;;2.30;2.10;;;24.40;65.60;;;;;;6241199;22;43453;-62
2022/07/25 12:45:33;;;;;;;3.58;2.28;;;24.40;65.50;;;;;;6240728;22;44646;-62
2022/07/25 12:48:01;;;;;;;3.83;2.25;;;24.40;65.50;;;;;;6241613;22;43475;-61
2022/07/25 12:50:30;;;;;;;2.92;2.00;;;24.40;65.40;;;;;;6242238;22;43420;-61
2022/07/25 12:52:57;;;;;;;2.40;2.20;;;24.40;65.30;;;;;;6242223;22;43515;-62
2022/07/25 12:55:25;;;;;;;2.60;2.00;;;24.40;65.20;;;;;;6240320;22;44033;-62
2022/07/25 12:57:52;;;;;;;2.70;1.98;;;24.40;65.10;;;;;;6241594;22;43412;-62
2022/07/25 13:00:22;;;;;;;2.20;2.00;;;24.40;65.10;;;;;;6241991;22;43450;-61